sensor_id;sensor_type;location;lat;lon;timestamp;pressure;altitude;pressure_sealevel;temperature;humidity
35892;BME280;21993;42.672;23.296;2023-02-28T00:00:50;95166.84;;;9.10;80.46
35892;BME280;21993;42.672;23.296;2023-02-28T00:03:15;95163.31;;;9.22;79.74
35892;BME280;21993;42.672;23.296;2023-02-28T00:05:41;95171.97;;;9.11;79.76
35892;BME280;21993;42.672;23.296;2023-02-28T00:08:07;95170.53;;;9.07;79.94
35892;BME280;21993;42.672;23.296;2023-02-28T00:10:32;95157.44;;;8.72;80.22
35892;BME280;21993;42.672;23.296;2023-02-28T00:13:04;95166.19;;;8.84;81.00
35892;BME280;21993;42.672;23.296;2023-02-28T00:15:30;95161.38;;;9.13;80.72
35892;BME280;21993;42.672;23.296;2023-02-28T00:17:56;95167.81;;;9.20;79.93
35892;BME280;21993;42.672;23.296;2023-02-28T00:20:22;95182.59;;;9.21;79.70
35892;BME280;21993;42.672;23.296;2023-02-28T00:22:50;95181.41;;;9.25;78.77
35892;BME280;21993;42.672;23.296;2023-02-28T00:25:21;95192.13;;;9.33;79.07
35892;BME280;21993;42.672;23.296;2023-02-28T00:27:47;95181.91;;;9.41;78.90
35892;BME280;21993;42.672;23.296;2023-02-28T00:30:15;95188.47;;;9.47;78.01
35892;BME280;21993;42.672;23.296;2023-02-28T00:32:41;95185.13;;;9.56;78.99
35892;BME280;21993;42.672;23.296;2023-02-28T00:35:07;95180.97;;;9.65;79.32
35892;BME280;21993;42.672;23.296;2023-02-28T00:37:33;95182.56;;;9.67;79.17
35892;BME280;21993;42.672;23.296;2023-02-28T00:39:59;95175.72;;;9.65;79.78
35892;BME280;21993;42.672;23.296;2023-02-28T00:42:24;95179.31;;;9.75;79.04
35892;BME280;21993;42.672;23.296;2023-02-28T00:44:50;95185.63;;;9.72;78.54
35892;BME280;21993;42.672;23.296;2023-02-28T00:47:16;95184.34;;;9.78;77.98
35892;BME280;21993;42.672;23.296;2023-02-28T00:49:41;95175.25;;;9.82;78.15
35892;BME280;21993;42.672;23.296;2023-02-28T00:52:07;95184.31;;;9.67;78.48
35892;BME280;21993;42.672;23.296;2023-02-28T00:54:32;95184.19;;;9.57;78.96
35892;BME280;21993;42.672;23.296;2023-02-28T00:56:58;95168.25;;;9.71;78.51
35892;BME280;21993;42.672;23.296;2023-02-28T00:59:23;95177.63;;;9.74;77.92
35892;BME280;21993;42.672;23.296;2023-02-28T01:01:49;95179.69;;;9.70;78.43
35892;BME280;21993;42.672;23.296;2023-02-28T01:04:14;95173.47;;;9.71;77.95
35892;BME280;21993;42.672;23.296;2023-02-28T01:06:40;95173.72;;;9.68;77.36
35892;BME280;21993;42.672;23.296;2023-02-28T01:09:06;95167.28;;;9.72;77.12
35892;BME280;21993;42.672;23.296;2023-02-28T01:11:32;95177.44;;;9.77;77.22
35892;BME280;21993;42.672;23.296;2023-02-28T01:13:58;95172.41;;;9.74;77.55
35892;BME280;21993;42.672;23.296;2023-02-28T01:16:24;95175.16;;;9.72;77.51
35892;BME280;21993;42.672;23.296;2023-02-28T01:18:49;95168.50;;;9.68;77.53
35892;BME280;21993;42.672;23.296;2023-02-28T01:21:17;95167.41;;;9.71;78.15
35892;BME280;21993;42.672;23.296;2023-02-28T01:23:42;95171.81;;;9.70;78.13
35892;BME280;21993;42.672;23.296;2023-02-28T01:26:11;95165.13;;;9.66;78.36
35892;BME280;21993;42.672;23.296;2023-02-28T01:28:37;95166.66;;;9.57;77.59
35892;BME280;21993;42.672;23.296;2023-02-28T01:31:03;95161.09;;;9.51;78.38
35892;BME280;21993;42.672;23.296;2023-02-28T01:33:29;95173.00;;;9.55;77.59
35892;BME280;21993;42.672;23.296;2023-02-28T01:36:05;95168.91;;;9.40;78.34
35892;BME280;21993;42.672;23.296;2023-02-28T01:38:31;95167.50;;;9.36;78.74
35892;BME280;21993;42.672;23.296;2023-02-28T01:40:57;95167.25;;;9.39;77.82
35892;BME280;21993;42.672;23.296;2023-02-28T01:43:26;95179.88;;;9.34;78.43
35892;BME280;21993;42.672;23.296;2023-02-28T01:45:53;95180.09;;;9.30;78.48
35892;BME280;21993;42.672;23.296;2023-02-28T01:48:21;95177.97;;;9.36;78.51
35892;BME280;21993;42.672;23.296;2023-02-28T01:50:48;95189.03;;;9.28;78.19
35892;BME280;21993;42.672;23.296;2023-02-28T01:53:18;95184.63;;;9.28;78.05
35892;BME280;21993;42.672;23.296;2023-02-28T01:55:47;95178.69;;;9.26;77.84
35892;BME280;21993;42.672;23.296;2023-02-28T01:58:14;95183.81;;;9.28;77.42
35892;BME280;21993;42.672;23.296;2023-02-28T02:00:39;95170.31;;;9.21;76.94
35892;BME280;21993;42.672;23.296;2023-02-28T02:03:13;95186.63;;;9.14;77.25
35892;BME280;21993;42.672;23.296;2023-02-28T02:05:40;95182.06;;;9.05;77.67
35892;BME280;21993;42.672;23.296;2023-02-28T02:08:15;95179.91;;;8.98;77.20
35892;BME280;21993;42.672;23.296;2023-02-28T02:10:46;95179.22;;;9.08;77.56
35892;BME280;21993;42.672;23.296;2023-02-28T02:30:44;95173.06;;;9.09;77.82
35892;BME280;21993;42.672;23.296;2023-02-28T02:38:35;95173.06;;;9.09;78.36
35892;BME280;21993;42.672;23.296;2023-02-28T02:48:42;95192.66;;;9.03;78.54
35892;BME280;21993;42.672;23.296;2023-02-28T02:51:17;95179.34;;;9.06;78.24
35892;BME280;21993;42.672;23.296;2023-02-28T02:53:56;95191.59;;;9.06;78.36
35892;BME280;21993;42.672;23.296;2023-02-28T02:56:26;95185.97;;;8.99;78.78
35892;BME280;21993;42.672;23.296;2023-02-28T02:58:56;95190.63;;;8.95;78.17
35892;BME280;21993;42.672;23.296;2023-02-28T03:01:25;95190.06;;;8.79;79.83
35892;BME280;21993;42.672;23.296;2023-02-28T03:04:13;95196.53;;;8.86;78.30
35892;BME280;21993;42.672;23.296;2023-02-28T03:06:39;95190.59;;;8.84;79.04
35892;BME280;21993;42.672;23.296;2023-02-28T03:09:04;95199.41;;;8.94;78.71
35892;BME280;21993;42.672;23.296;2023-02-28T03:11:30;95207.50;;;8.91;78.25
35892;BME280;21993;42.672;23.296;2023-02-28T03:27:07;95212.78;;;8.79;78.68
35892;BME280;21993;42.672;23.296;2023-02-28T03:29:39;95223.59;;;8.74;78.84
35892;BME280;21993;42.672;23.296;2023-02-28T03:32:16;95225.94;;;8.66;79.56
35892;BME280;21993;42.672;23.296;2023-02-28T03:34:51;95225.50;;;8.72;78.47
35892;BME280;21993;42.672;23.296;2023-02-28T03:37:22;95223.16;;;8.56;79.87
35892;BME280;21993;42.672;23.296;2023-02-28T03:40:12;95235.00;;;8.49;79.21
35892;BME280;21993;42.672;23.296;2023-02-28T03:42:42;95233.25;;;8.50;80.27
35892;BME280;21993;42.672;23.296;2023-02-28T03:45:16;95233.13;;;8.51;79.74
35892;BME280;21993;42.672;23.296;2023-02-28T03:47:50;95239.50;;;8.47;80.24
35892;BME280;21993;42.672;23.296;2023-02-28T03:50:40;95236.47;;;8.53;80.12
35892;BME280;21993;42.672;23.296;2023-02-28T03:53:20;95245.47;;;8.49;80.88
35892;BME280;21993;42.672;23.296;2023-02-28T03:56:14;95240.22;;;8.49;81.11
35892;BME280;21993;42.672;23.296;2023-02-28T04:01:18;95250.91;;;8.59;81.07
35892;BME280;21993;42.672;23.296;2023-02-28T04:03:45;95236.31;;;8.67;80.75
35892;BME280;21993;42.672;23.296;2023-02-28T04:06:22;95241.03;;;8.62;80.42
35892;BME280;21993;42.672;23.296;2023-02-28T04:08:48;95242.97;;;8.48;80.05
35892;BME280;21993;42.672;23.296;2023-02-28T04:13:41;95240.06;;;8.39;80.78
35892;BME280;21993;42.672;23.296;2023-02-28T04:16:08;95232.28;;;8.51;80.27
35892;BME280;21993;42.672;23.296;2023-02-28T04:18:39;95236.78;;;8.49;80.55
35892;BME280;21993;42.672;23.296;2023-02-28T04:21:06;95237.00;;;8.45;80.66
35892;BME280;21993;42.672;23.296;2023-02-28T04:23:31;95235.56;;;8.41;80.64
35892;BME280;21993;42.672;23.296;2023-02-28T04:25:57;95237.91;;;8.57;80.66
35892;BME280;21993;42.672;23.296;2023-02-28T04:28:22;95237.25;;;8.42;81.10
35892;BME280;21993;42.672;23.296;2023-02-28T04:30:53;95236.22;;;8.56;80.63
35892;BME280;21993;42.672;23.296;2023-02-28T04:33:18;95241.63;;;8.66;80.75
35892;BME280;21993;42.672;23.296;2023-02-28T04:35:44;95236.50;;;8.64;80.46
35892;BME280;21993;42.672;23.296;2023-02-28T04:38:09;95242.94;;;8.60;79.85
35892;BME280;21993;42.672;23.296;2023-02-28T04:40:35;95243.41;;;8.65;79.28
35892;BME280;21993;42.672;23.296;2023-02-28T04:43:00;95247.50;;;8.69;79.12
35892;BME280;21993;42.672;23.296;2023-02-28T04:45:26;95246.81;;;8.79;79.06
35892;BME280;21993;42.672;23.296;2023-02-28T04:47:55;95261.81;;;8.77;79.38
35892;BME280;21993;42.672;23.296;2023-02-28T04:50:20;95264.06;;;8.57;80.24
35892;BME280;21993;42.672;23.296;2023-02-28T04:52:45;95267.19;;;8.62;79.67
35892;BME280;21993;42.672;23.296;2023-02-28T04:55:11;95271.28;;;8.66;79.22
35892;BME280;21993;42.672;23.296;2023-02-28T04:57:36;95274.44;;;8.59;79.19
35892;BME280;21993;42.672;23.296;2023-02-28T05:00:02;95272.44;;;8.62;80.00
35892;BME280;21993;42.672;23.296;2023-02-28T05:02:34;95270.34;;;8.67;78.48
35892;BME280;21993;42.672;23.296;2023-02-28T05:05:00;95275.44;;;8.69;79.18
35892;BME280;21993;42.672;23.296;2023-02-28T05:07:25;95273.91;;;8.54;79.85
35892;BME280;21993;42.672;23.296;2023-02-28T05:09:51;95270.34;;;8.55;79.73
35892;BME280;21993;42.672;23.296;2023-02-28T05:12:16;95276.72;;;8.63;79.13
35892;BME280;21993;42.672;23.296;2023-02-28T05:14:41;95279.84;;;8.68;80.08
35892;BME280;21993;42.672;23.296;2023-02-28T05:17:08;95276.72;;;8.63;79.52
35892;BME280;21993;42.672;23.296;2023-02-28T05:19:33;95274.09;;;8.63;80.07
35892;BME280;21993;42.672;23.296;2023-02-28T05:21:59;95275.94;;;8.50;80.20
35892;BME280;21993;42.672;23.296;2023-02-28T05:24:24;95287.53;;;8.46;80.24
35892;BME280;21993;42.672;23.296;2023-02-28T05:26:51;95278.94;;;8.57;79.20
35892;BME280;21993;42.672;23.296;2023-02-28T05:29:18;95296.63;;;8.53;79.58
35892;BME280;21993;42.672;23.296;2023-02-28T05:31:43;95293.72;;;8.45;79.66
35892;BME280;21993;42.672;23.296;2023-02-28T05:34:08;95291.19;;;8.31;80.02
35892;BME280;21993;42.672;23.296;2023-02-28T05:36:37;95297.19;;;8.33;79.75
35892;BME280;21993;42.672;23.296;2023-02-28T05:39:02;95290.19;;;8.33;80.69
35892;BME280;21993;42.672;23.296;2023-02-28T05:41:29;95296.47;;;8.43;80.14
35892;BME280;21993;42.672;23.296;2023-02-28T05:43:54;95305.22;;;8.55;79.67
35892;BME280;21993;42.672;23.296;2023-02-28T05:46:20;95305.50;;;8.63;79.59
35892;BME280;21993;42.672;23.296;2023-02-28T05:48:47;95296.22;;;8.59;79.83
35892;BME280;21993;42.672;23.296;2023-02-28T05:51:13;95305.63;;;8.62;79.32
35892;BME280;21993;42.672;23.296;2023-02-28T05:53:38;95314.34;;;8.50;78.74
35892;BME280;21993;42.672;23.296;2023-02-28T05:56:04;95319.59;;;8.50;78.97
35892;BME280;21993;42.672;23.296;2023-02-28T05:58:30;95311.38;;;8.54;79.66
35892;BME280;21993;42.672;23.296;2023-02-28T06:00:59;95311.78;;;8.61;78.59
35892;BME280;21993;42.672;23.296;2023-02-28T06:03:25;95312.09;;;8.56;78.92
35892;BME280;21993;42.672;23.296;2023-02-28T06:05:51;95309.28;;;8.59;78.67
35892;BME280;21993;42.672;23.296;2023-02-28T06:08:17;95308.84;;;8.65;78.96
35892;BME280;21993;42.672;23.296;2023-02-28T06:10:43;95306.13;;;8.67;79.18
35892;BME280;21993;42.672;23.296;2023-02-28T06:13:09;95307.41;;;8.61;79.01
35892;BME280;21993;42.672;23.296;2023-02-28T06:15:34;95311.91;;;8.59;79.32
35892;BME280;21993;42.672;23.296;2023-02-28T06:18:00;95296.81;;;8.63;78.94
35892;BME280;21993;42.672;23.296;2023-02-28T06:20:26;95299.00;;;8.69;79.06
35892;BME280;21993;42.672;23.296;2023-02-28T06:22:56;95304.59;;;8.52;80.07
35892;BME280;21993;42.672;23.296;2023-02-28T06:25:24;95306.97;;;8.67;79.62
35892;BME280;21993;42.672;23.296;2023-02-28T06:27:49;95315.13;;;8.76;79.99
35892;BME280;21993;42.672;23.296;2023-02-28T06:30:15;95314.28;;;8.75;78.61
35892;BME280;21993;42.672;23.296;2023-02-28T06:32:40;95318.44;;;8.78;79.37
35892;BME280;21993;42.672;23.296;2023-02-28T06:35:06;95318.63;;;8.87;78.99
35892;BME280;21993;42.672;23.296;2023-02-28T06:37:32;95326.72;;;8.84;77.89
35892;BME280;21993;42.672;23.296;2023-02-28T06:39:58;95329.69;;;8.91;77.62
35892;BME280;21993;42.672;23.296;2023-02-28T06:42:24;95335.69;;;8.93;77.94
35892;BME280;21993;42.672;23.296;2023-02-28T06:44:57;95333.59;;;8.85;78.03
35892;BME280;21993;42.672;23.296;2023-02-28T06:47:23;95330.28;;;8.83;78.42
35892;BME280;21993;42.672;23.296;2023-02-28T06:49:49;95321.34;;;8.86;78.33
35892;BME280;21993;42.672;23.296;2023-02-28T06:52:15;95326.34;;;8.89;79.24
35892;BME280;21993;42.672;23.296;2023-02-28T06:54:40;95327.72;;;8.94;78.62
35892;BME280;21993;42.672;23.296;2023-02-28T06:57:06;95333.84;;;9.06;78.27
35892;BME280;21993;42.672;23.296;2023-02-28T06:59:31;95334.34;;;9.11;78.18
35892;BME280;21993;42.672;23.296;2023-02-28T07:01:57;95333.50;;;9.11;78.07
35892;BME280;21993;42.672;23.296;2023-02-28T07:04:22;95339.16;;;9.17;78.33
35892;BME280;21993;42.672;23.296;2023-02-28T07:06:48;95331.06;;;9.20;78.00
35892;BME280;21993;42.672;23.296;2023-02-28T07:09:13;95333.44;;;9.23;77.33
35892;BME280;21993;42.672;23.296;2023-02-28T07:11:39;95335.97;;;9.25;77.58
35892;BME280;21993;42.672;23.296;2023-02-28T07:14:05;95329.28;;;9.21;77.15
35892;BME280;21993;42.672;23.296;2023-02-28T07:16:31;95324.94;;;9.09;77.48
35892;BME280;21993;42.672;23.296;2023-02-28T07:18:56;95331.88;;;9.21;78.05
35892;BME280;21993;42.672;23.296;2023-02-28T07:21:22;95329.00;;;9.13;77.84
35892;BME280;21993;42.672;23.296;2023-02-28T07:23:47;95340.06;;;9.16;77.17
35892;BME280;21993;42.672;23.296;2023-02-28T07:26:18;95332.22;;;9.16;77.75
35892;BME280;21993;42.672;23.296;2023-02-28T07:28:45;95334.19;;;9.25;78.01
35892;BME280;21993;42.672;23.296;2023-02-28T07:31:12;95332.88;;;9.31;77.89
35892;BME280;21993;42.672;23.296;2023-02-28T07:33:39;95332.84;;;9.44;78.09
35892;BME280;21993;42.672;23.296;2023-02-28T07:36:07;95340.69;;;9.44;77.34
35892;BME280;21993;42.672;23.296;2023-02-28T07:38:34;95338.91;;;9.44;76.91
35892;BME280;21993;42.672;23.296;2023-02-28T07:41:00;95341.72;;;9.41;77.50
35892;BME280;21993;42.672;23.296;2023-02-28T07:43:29;95338.06;;;9.44;78.08
35892;BME280;21993;42.672;23.296;2023-02-28T07:45:55;95341.78;;;9.52;77.34
35892;BME280;21993;42.672;23.296;2023-02-28T07:48:20;95333.88;;;9.41;77.88
35892;BME280;21993;42.672;23.296;2023-02-28T07:50:54;95326.63;;;9.45;77.27
35892;BME280;21993;42.672;23.296;2023-02-28T07:53:20;95328.19;;;9.47;78.07
35892;BME280;21993;42.672;23.296;2023-02-28T07:55:45;95334.25;;;9.48;77.83
35892;BME280;21993;42.672;23.296;2023-02-28T07:58:11;95325.25;;;9.52;77.92
35892;BME280;21993;42.672;23.296;2023-02-28T08:00:36;95324.50;;;9.50;77.23
35892;BME280;21993;42.672;23.296;2023-02-28T08:03:01;95324.88;;;9.56;76.93
35892;BME280;21993;42.672;23.296;2023-02-28T08:05:27;95322.88;;;9.60;77.69
35892;BME280;21993;42.672;23.296;2023-02-28T08:07:52;95329.56;;;9.64;77.54
35892;BME280;21993;42.672;23.296;2023-02-28T08:10:18;95321.31;;;9.57;77.69
35892;BME280;21993;42.672;23.296;2023-02-28T08:12:43;95327.91;;;9.74;76.81
35892;BME280;21993;42.672;23.296;2023-02-28T08:15:09;95327.44;;;9.80;76.77
35892;BME280;21993;42.672;23.296;2023-02-28T08:17:35;95335.31;;;9.80;77.05
35892;BME280;21993;42.672;23.296;2023-02-28T08:20:01;95334.03;;;9.86;76.84
35892;BME280;21993;42.672;23.296;2023-02-28T08:22:26;95334.16;;;9.84;77.57
35892;BME280;21993;42.672;23.296;2023-02-28T08:24:51;95330.47;;;9.87;77.94
35892;BME280;21993;42.672;23.296;2023-02-28T08:27:17;95337.50;;;9.86;77.67
35892;BME280;21993;42.672;23.296;2023-02-28T08:29:42;95329.88;;;9.95;77.58
35892;BME280;21993;42.672;23.296;2023-02-28T08:32:08;95329.50;;;9.88;77.46
35892;BME280;21993;42.672;23.296;2023-02-28T08:34:33;95338.81;;;9.92;77.76
35892;BME280;21993;42.672;23.296;2023-02-28T08:36:59;95339.91;;;10.01;78.02
35892;BME280;21993;42.672;23.296;2023-02-28T08:39:24;95340.00;;;9.99;77.72
35892;BME280;21993;42.672;23.296;2023-02-28T08:41:49;95341.56;;;10.02;77.56
35892;BME280;21993;42.672;23.296;2023-02-28T08:44:15;95341.81;;;10.10;77.29
35892;BME280;21993;42.672;23.296;2023-02-28T08:46:40;95344.19;;;10.02;76.74
35892;BME280;21993;42.672;23.296;2023-02-28T08:49:06;95343.47;;;10.00;77.27
35892;BME280;21993;42.672;23.296;2023-02-28T08:51:32;95340.63;;;10.03;76.55
35892;BME280;21993;42.672;23.296;2023-02-28T08:53:59;95339.09;;;10.11;76.53
35892;BME280;21993;42.672;23.296;2023-02-28T08:56:26;95344.28;;;10.00;77.13
35892;BME280;21993;42.672;23.296;2023-02-28T08:58:54;95346.56;;;10.05;76.72
35892;BME280;21993;42.672;23.296;2023-02-28T09:01:26;95345.75;;;10.04;77.30
35892;BME280;21993;42.672;23.296;2023-02-28T09:03:53;95340.25;;;9.96;77.05
35892;BME280;21993;42.672;23.296;2023-02-28T09:06:20;95337.63;;;10.07;76.91
35892;BME280;21993;42.672;23.296;2023-02-28T09:08:46;95338.97;;;10.13;77.06
35892;BME280;21993;42.672;23.296;2023-02-28T09:11:11;95339.91;;;10.12;76.83
35892;BME280;21993;42.672;23.296;2023-02-28T09:13:38;95338.97;;;10.13;77.12
35892;BME280;21993;42.672;23.296;2023-02-28T09:16:05;95332.63;;;10.15;77.00
35892;BME280;21993;42.672;23.296;2023-02-28T09:18:31;95329.69;;;10.31;76.61
35892;BME280;21993;42.672;23.296;2023-02-28T09:20:56;95341.88;;;10.32;76.50
35892;BME280;21993;42.672;23.296;2023-02-28T09:23:23;95329.53;;;10.22;76.57
35892;BME280;21993;42.672;23.296;2023-02-28T09:25:54;95339.81;;;10.25;76.25
35892;BME280;21993;42.672;23.296;2023-02-28T09:28:20;95329.81;;;10.30;76.18
35892;BME280;21993;42.672;23.296;2023-02-28T09:30:49;95341.16;;;10.30;76.70
35892;BME280;21993;42.672;23.296;2023-02-28T09:33:15;95327.53;;;10.25;76.14
35892;BME280;21993;42.672;23.296;2023-02-28T09:35:41;95333.88;;;10.34;76.39
35892;BME280;21993;42.672;23.296;2023-02-28T09:38:08;95331.25;;;10.34;76.38
35892;BME280;21993;42.672;23.296;2023-02-28T09:40:49;95333.06;;;10.45;76.36
35892;BME280;21993;42.672;23.296;2023-02-28T09:43:15;95331.38;;;10.43;75.63
35892;BME280;21993;42.672;23.296;2023-02-28T09:45:50;95330.44;;;10.45;76.33
35892;BME280;21993;42.672;23.296;2023-02-28T09:48:21;95321.97;;;10.52;75.92
35892;BME280;21993;42.672;23.296;2023-02-28T09:50:55;95325.41;;;10.53;75.74
35892;BME280;21993;42.672;23.296;2023-02-28T09:53:31;95314.78;;;10.54;75.94
35892;BME280;21993;42.672;23.296;2023-02-28T09:56:02;95318.97;;;10.57;76.00
35892;BME280;21993;42.672;23.296;2023-02-28T09:58:44;95312.84;;;10.67;75.63
35892;BME280;21993;42.672;23.296;2023-02-28T10:06:46;95316.06;;;10.82;75.31
35892;BME280;21993;42.672;23.296;2023-02-28T10:09:18;95312.69;;;10.91;75.26
35892;BME280;21993;42.672;23.296;2023-02-28T10:11:46;95307.97;;;10.74;75.92
35892;BME280;21993;42.672;23.296;2023-02-28T10:14:18;95299.94;;;10.76;76.61
35892;BME280;21993;42.672;23.296;2023-02-28T10:16:46;95303.41;;;10.87;76.19
35892;BME280;21993;42.672;23.296;2023-02-28T10:19:24;95297.69;;;10.82;76.97
35892;BME280;21993;42.672;23.296;2023-02-28T10:22:00;95299.69;;;10.90;76.43
35892;BME280;21993;42.672;23.296;2023-02-28T10:24:41;95286.28;;;11.04;75.98
35892;BME280;21993;42.672;23.296;2023-02-28T10:29:45;95281.88;;;11.05;76.35
35892;BME280;21993;42.672;23.296;2023-02-28T10:32:15;95281.47;;;11.20;75.45
35892;BME280;21993;42.672;23.296;2023-02-28T10:34:41;95269.84;;;11.23;75.79
35892;BME280;21993;42.672;23.296;2023-02-28T10:37:07;95270.34;;;11.17;75.02
35892;BME280;21993;42.672;23.296;2023-02-28T10:42:05;95258.59;;;11.32;74.52
35892;BME280;21993;42.672;23.296;2023-02-28T10:44:41;95264.31;;;11.37;74.68
35892;BME280;21993;42.672;23.296;2023-02-28T10:47:14;95246.94;;;11.46;73.83
35892;BME280;21993;42.672;23.296;2023-02-28T10:49:47;95245.91;;;11.37;73.76
35892;BME280;21993;42.672;23.296;2023-02-28T10:52:36;95241.53;;;11.47;73.56
35892;BME280;21993;42.672;23.296;2023-02-28T10:55:22;95228.66;;;11.44;73.39
35892;BME280;21993;42.672;23.296;2023-02-28T10:57:49;95222.78;;;11.52;72.94
35892;BME280;21993;42.672;23.296;2023-02-28T11:02:45;95224.22;;;11.66;72.64
35892;BME280;21993;42.672;23.296;2023-02-28T11:07:57;95220.25;;;11.92;71.15
35892;BME280;21993;42.672;23.296;2023-02-28T11:10:26;95213.91;;;11.95;70.81
35892;BME280;21993;42.672;23.296;2023-02-28T11:12:57;95217.56;;;11.82;70.53
35892;BME280;21993;42.672;23.296;2023-02-28T11:15:26;95215.56;;;11.96;70.27
35892;BME280;21993;42.672;23.296;2023-02-28T11:20:49;95211.69;;;12.00;70.10
35892;BME280;21993;42.672;23.296;2023-02-28T11:23:15;95207.34;;;11.89;69.64
35892;BME280;21993;42.672;23.296;2023-02-28T11:25:47;95206.44;;;12.00;69.83
35892;BME280;21993;42.672;23.296;2023-02-28T11:28:29;95209.25;;;12.08;69.52
35892;BME280;21993;42.672;23.296;2023-02-28T11:31:17;95204.34;;;12.34;69.10
35892;BME280;21993;42.672;23.296;2023-02-28T11:36:24;95202.63;;;12.73;68.18
35892;BME280;21993;42.672;23.296;2023-02-28T11:38:50;95191.41;;;12.71;67.37
35892;BME280;21993;42.672;23.296;2023-02-28T11:52:55;95195.03;;;12.89;66.64
35892;BME280;21993;42.672;23.296;2023-02-28T11:55:36;95181.44;;;13.13;66.15
35892;BME280;21993;42.672;23.296;2023-02-28T12:00:59;95182.66;;;13.19;66.20
35892;BME280;21993;42.672;23.296;2023-02-28T12:09:40;95182.41;;;13.03;66.37
35892;BME280;21993;42.672;23.296;2023-02-28T12:20:54;95182.13;;;12.96;65.87
35892;BME280;21993;42.672;23.296;2023-02-28T12:26:12;95184.19;;;12.92;66.29
35892;BME280;21993;42.672;23.296;2023-02-28T12:28:51;95180.03;;;13.00;65.77
35892;BME280;21993;42.672;23.296;2023-02-28T12:31:20;95191.03;;;12.95;65.58
35892;BME280;21993;42.672;23.296;2023-02-28T12:34:06;95182.81;;;13.17;65.70
35892;BME280;21993;42.672;23.296;2023-02-28T12:36:33;95181.31;;;12.95;65.10
35892;BME280;21993;42.672;23.296;2023-02-28T12:39:09;95176.56;;;12.70;65.42
35892;BME280;21993;42.672;23.296;2023-02-28T12:41:46;95182.25;;;12.85;65.43
35892;BME280;21993;42.672;23.296;2023-02-28T12:44:26;95170.47;;;12.89;65.24
35892;BME280;21993;42.672;23.296;2023-02-28T12:46:56;95168.13;;;13.05;65.04
35892;BME280;21993;42.672;23.296;2023-02-28T12:49:58;95162.16;;;12.93;65.54
35892;BME280;21993;42.672;23.296;2023-02-28T12:52:34;95165.34;;;12.97;65.63
35892;BME280;21993;42.672;23.296;2023-02-28T12:57:40;95176.97;;;12.94;65.58
35892;BME280;21993;42.672;23.296;2023-02-28T13:00:14;95170.06;;;12.84;64.88
35892;BME280;21993;42.672;23.296;2023-02-28T13:05:32;95167.41;;;12.93;64.65
35892;BME280;21993;42.672;23.296;2023-02-28T13:10:47;95158.97;;;13.00;64.21
35892;BME280;21993;42.672;23.296;2023-02-28T13:13:21;95176.84;;;13.15;64.22
35892;BME280;21993;42.672;23.296;2023-02-28T13:16:16;95172.16;;;12.90;65.14
35892;BME280;21993;42.672;23.296;2023-02-28T13:18:45;95166.19;;;12.78;65.24
35892;BME280;21993;42.672;23.296;2023-02-28T13:21:28;95164.63;;;12.66;65.63
35892;BME280;21993;42.672;23.296;2023-02-28T13:24:02;95158.41;;;12.67;65.90
35892;BME280;21993;42.672;23.296;2023-02-28T13:31:30;95164.03;;;12.33;66.50
35892;BME280;21993;42.672;23.296;2023-02-28T13:34:06;95161.25;;;12.35;65.59
35892;BME280;21993;42.672;23.296;2023-02-28T13:36:38;95159.75;;;12.42;66.01
35892;BME280;21993;42.672;23.296;2023-02-28T13:42:38;95149.63;;;12.28;66.15
35892;BME280;21993;42.672;23.296;2023-02-28T13:47:48;95146.25;;;12.26;66.18
35892;BME280;21993;42.672;23.296;2023-02-28T13:58:05;95134.34;;;12.12;66.27
35892;BME280;21993;42.672;23.296;2023-02-28T14:05:43;95135.91;;;12.34;66.18
35892;BME280;21993;42.672;23.296;2023-02-28T14:08:19;95139.63;;;12.22;65.73
35892;BME280;21993;42.672;23.296;2023-02-28T14:11:03;95141.66;;;12.08;66.11
35892;BME280;21993;42.672;23.296;2023-02-28T14:13:44;95135.00;;;12.04;66.09
35892;BME280;21993;42.672;23.296;2023-02-28T14:19:13;95140.03;;;12.27;66.34
35892;BME280;21993;42.672;23.296;2023-02-28T14:27:35;95131.91;;;12.39;66.19
35892;BME280;21993;42.672;23.296;2023-02-28T14:37:53;95147.22;;;12.15;66.71
35892;BME280;21993;42.672;23.296;2023-02-28T14:40:29;95142.81;;;12.25;66.86
35892;BME280;21993;42.672;23.296;2023-02-28T14:43:00;95141.28;;;12.23;66.55
35892;BME280;21993;42.672;23.296;2023-02-28T14:45:29;95142.00;;;12.44;66.53
35892;BME280;21993;42.672;23.296;2023-02-28T14:47:56;95140.63;;;12.40;66.82
35892;BME280;21993;42.672;23.296;2023-02-28T14:50:34;95136.13;;;12.11;66.71
35892;BME280;21993;42.672;23.296;2023-02-28T14:53:01;95142.41;;;12.20;67.06
35892;BME280;21993;42.672;23.296;2023-02-28T14:55:32;95150.78;;;12.04;67.69
35892;BME280;21993;42.672;23.296;2023-02-28T14:58:05;95141.41;;;12.11;67.91
35892;BME280;21993;42.672;23.296;2023-02-28T15:00:40;95149.81;;;12.05;67.29
35892;BME280;21993;42.672;23.296;2023-02-28T15:03:38;95145.84;;;11.80;68.40
35892;BME280;21993;42.672;23.296;2023-02-28T15:06:15;95142.03;;;11.94;68.40
35892;BME280;21993;42.672;23.296;2023-02-28T15:08:43;95139.09;;;11.88;67.84
35892;BME280;21993;42.672;23.296;2023-02-28T15:11:19;95137.06;;;12.10;67.82
35892;BME280;21993;42.672;23.296;2023-02-28T15:13:49;95139.00;;;11.99;67.59
35892;BME280;21993;42.672;23.296;2023-02-28T15:21:21;95137.06;;;12.01;68.03
35892;BME280;21993;42.672;23.296;2023-02-28T15:23:53;95138.81;;;11.91;68.35
35892;BME280;21993;42.672;23.296;2023-02-28T15:26:23;95143.44;;;11.98;68.19
35892;BME280;21993;42.672;23.296;2023-02-28T15:29:04;95147.69;;;11.90;68.27
35892;BME280;21993;42.672;23.296;2023-02-28T15:31:37;95148.47;;;11.60;68.56
35892;BME280;21993;42.672;23.296;2023-02-28T15:34:14;95159.31;;;11.66;68.67
35892;BME280;21993;42.672;23.296;2023-02-28T15:36:42;95155.66;;;11.57;68.93
35892;BME280;21993;42.672;23.296;2023-02-28T15:39:26;95156.91;;;11.53;69.07
35892;BME280;21993;42.672;23.296;2023-02-28T15:42:09;95155.84;;;11.66;68.54